Time;durP1;ratioP1;P1;durP2;ratioP2;P2;SDS_P1;SDS_P2;PMS_P1;PMS_P2;Temp;Humidity;BMP_temperature;BMP_pressure;BME280_temperature;BME280_humidity;BME280_pressure;Samples;Min_cycle;Max_cycle;Signal;HPM_P1;HPM_P2
2022/06/04 00:01:28;;;;;;;15.60;11.35;;;;;;;;;;5067284;28;20510;-84
2022/06/04 00:03:54;;;;;;;16.17;10.27;;;;;;;;;;5049419;28;20055;-84
2022/06/04 00:06:20;;;;;;;17.88;10.95;;;;;;;;;;5049142;28;20078;-84
2022/06/04 00:08:46;;;;;;;13.30;8.88;;;;;;;;;;5049662;28;20163;-85
2022/06/04 00:16:42;;;;;;;14.70;8.70;;;;;;;;;;5049762;28;20045;-84
2022/06/04 00:19:08;;;;;;;14.48;8.57;;;;;;;;;;5048221;28;20036;-85
2022/06/04 00:21:34;;;;;;;12.18;8.10;;;;;;;;;;5031752;28;20057;-84
2022/06/04 00:24:00;;;;;;;14.13;7.30;;;;;;;;;;5048055;28;20060;-84
2022/06/04 00:26:26;;;;;;;13.63;7.85;;;;;;;;;;5060374;28;20041;-85
2022/06/04 00:28:52;;;;;;;13.63;7.57;;;;;;;;;;5069103;28;20044;-84
2022/06/04 00:31:19;;;;;;;12.45;7.07;;;;;;;;;;5068619;28;20048;-85
2022/06/04 00:33:46;;;;;;;13.32;7.35;;;;;;;;;;5053048;28;20078;-84
2022/06/04 00:36:12;;;;;;;14.43;7.60;;;;;;;;;;5050446;28;20064;-85
2022/06/04 00:38:38;;;;;;;13.43;7.82;;;;;;;;;;5054785;28;20032;-84
2022/06/04 00:41:17;;;;;;;11.93;7.57;;;;;;;;;;5071592;28;20048;-84
2022/06/04 00:44:05;;;;;;;11.02;7.38;;;;;;;;;;5057337;28;20051;-85
2022/06/04 00:46:34;;;;;;;12.48;8.35;;;;;;;;;;5053335;28;20504;-84
2022/06/04 00:49:00;;;;;;;14.77;8.70;;;;;;;;;;5052153;28;20083;-84
2022/06/04 00:51:27;;;;;;;12.45;8.32;;;;;;;;;;5052014;28;20064;-84
2022/06/04 00:53:54;;;;;;;16.42;8.32;;;;;;;;;;5055550;28;20062;-85
2022/06/04 00:56:20;;;;;;;16.48;7.65;;;;;;;;;;5065841;28;20175;-85
2022/06/04 00:58:46;;;;;;;13.20;7.65;;;;;;;;;;5051513;28;20107;-84
2022/06/04 01:01:15;;;;;;;12.73;8.18;;;;;;;;;;5051393;28;20051;-84
2022/06/04 01:03:47;;;;;;;9.85;7.35;;;;;;;;;;5050299;28;20049;-84
2022/06/04 01:06:13;;;;;;;10.20;7.45;;;;;;;;;;5051589;28;20051;-84
2022/06/04 01:08:54;;;;;;;11.80;7.28;;;;;;;;;;5055014;28;20048;-84
2022/06/04 01:11:23;;;;;;;13.48;7.68;;;;;;;;;;5071809;28;20052;-84
2022/06/04 01:13:55;;;;;;;12.75;7.72;;;;;;;;;;5061215;28;20041;-84
2022/06/04 01:16:28;;;;;;;10.55;6.90;;;;;;;;;;5051739;28;20040;-84
2022/06/04 01:19:10;;;;;;;13.88;7.13;;;;;;;;;;5050119;28;20529;-84
2022/06/04 01:21:55;;;;;;;10.43;7.30;;;;;;;;;;5056528;28;20154;-85
2022/06/04 01:24:33;;;;;;;13.60;7.30;;;;;;;;;;5071679;28;20044;-84
2022/06/04 01:27:04;;;;;;;11.80;6.65;;;;;;;;;;5071002;28;20121;-84
2022/06/04 01:29:39;;;;;;;11.00;6.50;;;;;;;;;;5053741;28;20055;-84
2022/06/04 01:32:11;;;;;;;11.23;6.75;;;;;;;;;;5052227;28;20504;-85
2022/06/04 01:34:44;;;;;;;10.27;6.60;;;;;;;;;;5039055;28;20044;-84
2022/06/04 01:37:15;;;;;;;9.55;6.55;;;;;;;;;;5069516;28;20127;-85
2022/06/04 01:42:32;;;;;;;10.70;6.88;;;;;;;;;;5072040;28;20059;-84
2022/06/04 01:44:59;;;;;;;11.65;7.13;;;;;;;;;;5051926;28;20041;-84
2022/06/04 01:47:27;;;;;;;12.55;7.40;;;;;;;;;;5057043;28;20101;-84
2022/06/04 01:49:54;;;;;;;12.10;6.97;;;;;;;;;;5068235;28;20189;-84
2022/06/04 01:52:31;;;;;;;9.68;6.55;;;;;;;;;;5050041;28;20065;-84
2022/06/04 01:55:19;;;;;;;11.38;7.03;;;;;;;;;;5050468;28;20063;-85
2022/06/04 01:57:57;;;;;;;10.57;6.65;;;;;;;;;;5051014;28;20102;-84
2022/06/04 02:00:30;;;;;;;11.50;7.03;;;;;;;;;;5050369;28;20053;-85
2022/06/04 02:02:58;;;;;;;10.75;7.22;;;;;;;;;;5057950;28;20044;-85
2022/06/04 02:05:27;;;;;;;9.55;7.20;;;;;;;;;;5054307;28;20493;-84
2022/06/04 02:07:54;;;;;;;11.25;7.03;;;;;;;;;;5051513;28;20045;-84
2022/06/04 02:10:21;;;;;;;11.07;6.50;;;;;;;;;;5050139;28;20049;-84
2022/06/04 02:12:49;;;;;;;10.30;7.10;;;;;;;;;;5050429;28;20076;-84
2022/06/04 02:15:17;;;;;;;10.98;6.70;;;;;;;;;;5050575;28;20055;-85
2022/06/04 02:17:46;;;;;;;10.10;6.50;;;;;;;;;;5051344;28;20076;-84
2022/06/04 02:20:12;;;;;;;14.55;7.10;;;;;;;;;;5058441;28;20697;-84
2022/06/04 02:22:38;;;;;;;10.73;6.38;;;;;;;;;;5051455;28;20037;-84
2022/06/04 02:25:06;;;;;;;10.70;6.28;;;;;;;;;;5049566;28;20485;-85
2022/06/04 02:27:33;;;;;;;9.18;6.25;;;;;;;;;;5050307;28;20052;-84
2022/06/04 02:29:59;;;;;;;8.98;6.30;;;;;;;;;;5049781;28;20068;-84
2022/06/04 02:32:42;;;;;;;9.93;5.82;;;;;;;;;;5071462;28;20045;-84
2022/06/04 02:35:15;;;;;;;11.18;5.97;;;;;;;;;;5057619;28;20052;-84
2022/06/04 02:37:48;;;;;;;10.48;6.32;;;;;;;;;;5051575;28;20179;-84
2022/06/04 02:40:18;;;;;;;8.30;5.70;;;;;;;;;;5049328;28;20060;-84
2022/06/04 02:42:44;;;;;;;8.65;6.30;;;;;;;;;;5051046;28;20049;-84
2022/06/04 02:45:16;;;;;;;11.30;6.32;;;;;;;;;;5049300;28;20048;-85
2022/06/04 02:47:48;;;;;;;12.05;6.70;;;;;;;;;;5058622;28;20569;-84
2022/06/04 02:50:20;;;;;;;8.82;5.80;;;;;;;;;;5057673;28;20516;-84
2022/06/04 02:52:47;;;;;;;10.98;5.60;;;;;;;;;;5049503;28;20581;-84
2022/06/04 02:55:16;;;;;;;8.63;6.32;;;;;;;;;;5050238;28;20045;-84
2022/06/04 02:57:44;;;;;;;10.38;7.18;;;;;;;;;;5033074;28;20106;-84
2022/06/04 03:00:12;;;;;;;9.32;7.03;;;;;;;;;;5048326;28;20055;-84
2022/06/04 03:02:39;;;;;;;10.27;6.40;;;;;;;;;;5059450;28;20055;-84
2022/06/04 03:05:16;;;;;;;10.77;7.13;;;;;;;;;;5055284;28;20485;-85
2022/06/04 03:07:44;;;;;;;9.05;6.70;;;;;;;;;;5049580;28;20523;-84
2022/06/04 03:10:14;;;;;;;8.65;6.93;;;;;;;;;;5049662;28;20414;-84
2022/06/04 03:12:40;;;;;;;9.48;7.22;;;;;;;;;;5049548;28;20044;-84
2022/06/04 03:15:09;;;;;;;9.63;6.65;;;;;;;;;;5047528;28;20052;-84
2022/06/04 03:17:35;;;;;;;11.32;7.40;;;;;;;;;;5055205;28;20128;-84
2022/06/04 03:20:01;;;;;;;9.73;6.75;;;;;;;;;;5046581;28;20134;-84
2022/06/04 03:22:27;;;;;;;10.10;6.45;;;;;;;;;;5048997;28;20191;-85
2022/06/04 03:24:53;;;;;;;8.90;6.25;;;;;;;;;;5048712;28;20519;-85
2022/06/04 03:27:19;;;;;;;12.55;6.40;;;;;;;;;;5054163;28;20496;-85
2022/06/04 03:29:46;;;;;;;10.07;6.43;;;;;;;;;;5054531;28;20044;-84
2022/06/04 03:32:12;;;;;;;7.15;5.60;;;;;;;;;;5070225;28;20417;-84
2022/06/04 03:34:38;;;;;;;8.80;5.90;;;;;;;;;;5055494;28;20120;-85
2022/06/04 03:37:04;;;;;;;7.72;5.88;;;;;;;;;;5049384;28;20537;-84
2022/06/04 03:39:30;;;;;;;10.50;6.35;;;;;;;;;;5048861;28;20053;-84
2022/06/04 03:41:56;;;;;;;11.18;6.47;;;;;;;;;;5048167;28;20131;-84
2022/06/04 03:44:22;;;;;;;9.55;7.20;;;;;;;;;;5036472;28;20409;-84
2022/06/04 03:46:48;;;;;;;8.45;6.65;;;;;;;;;;5070365;28;20049;-85
2022/06/04 03:49:14;;;;;;;10.48;6.95;;;;;;;;;;5063188;28;20053;-84
2022/06/04 03:51:41;;;;;;;12.82;7.78;;;;;;;;;;5052661;28;20061;-84
2022/06/04 03:54:07;;;;;;;9.82;7.22;;;;;;;;;;5050770;28;20049;-85
2022/06/04 03:56:33;;;;;;;11.20;7.20;;;;;;;;;;5056219;28;20128;-84
2022/06/04 03:58:59;;;;;;;11.73;6.57;;;;;;;;;;5059147;28;20044;-84
2022/06/04 04:01:27;;;;;;;9.32;6.60;;;;;;;;;;5057990;28;20109;-84
2022/06/04 04:03:53;;;;;;;9.50;6.20;;;;;;;;;;5047177;28;20477;-84
2022/06/04 04:06:21;;;;;;;8.57;5.90;;;;;;;;;;5048259;28;20056;-85
2022/06/04 04:08:47;;;;;;;9.43;6.75;;;;;;;;;;5048388;28;20045;-84
2022/06/04 04:11:14;;;;;;;10.00;6.22;;;;;;;;;;5047732;28;20464;-84
2022/06/04 04:13:40;;;;;;;8.80;5.60;;;;;;;;;;5055415;28;20037;-84
2022/06/04 04:16:07;;;;;;;7.78;5.68;;;;;;;;;;5048281;28;20053;-84
2022/06/04 04:18:34;;;;;;;9.27;6.15;;;;;;;;;;5046912;28;20125;-84
2022/06/04 04:21:04;;;;;;;8.05;5.80;;;;;;;;;;5047546;28;20059;-85
2022/06/04 04:23:30;;;;;;;7.20;5.57;;;;;;;;;;5062389;28;20076;-85
2022/06/04 04:25:56;;;;;;;6.57;5.68;;;;;;;;;;5068195;28;20044;-84
2022/06/04 04:28:22;;;;;;;9.10;5.95;;;;;;;;;;5056410;28;20460;-84
2022/06/04 04:30:48;;;;;;;8.45;5.82;;;;;;;;;;5049854;28;20051;-84
2022/06/04 04:33:15;;;;;;;9.95;6.25;;;;;;;;;;5047063;28;20045;-85
2022/06/04 04:35:41;;;;;;;7.53;5.60;;;;;;;;;;5048005;28;20076;-84
2022/06/04 04:38:08;;;;;;;7.78;5.40;;;;;;;;;;5047804;28;20049;-85
2022/06/04 04:40:34;;;;;;;8.13;5.70;;;;;;;;;;5048065;28;20486;-84
2022/06/04 04:43:00;;;;;;;10.07;5.68;;;;;;;;;;5066874;28;20048;-84
2022/06/04 04:45:27;;;;;;;8.75;5.30;;;;;;;;;;5049513;28;20493;-85
2022/06/04 04:47:53;;;;;;;6.18;5.00;;;;;;;;;;5047380;28;20044;-84
2022/06/04 04:50:39;;;;;;;9.20;5.60;;;;;;;;;;5051929;28;20052;-85
2022/06/04 04:53:07;;;;;;;8.17;5.90;;;;;;;;;;5067846;28;20052;-84
2022/06/04 04:55:34;;;;;;;8.70;5.90;;;;;;;;;;5062125;28;20509;-84
2022/06/04 04:58:00;;;;;;;8.43;5.03;;;;;;;;;;5067611;28;20128;-84
2022/06/04 05:00:26;;;;;;;7.43;5.15;;;;;;;;;;5068039;28;20045;-85
2022/06/04 05:02:52;;;;;;;11.60;5.25;;;;;;;;;;5064606;28;20041;-84
2022/06/04 05:05:18;;;;;;;6.78;5.30;;;;;;;;;;5048833;28;20086;-84
2022/06/04 05:07:44;;;;;;;8.45;5.15;;;;;;;;;;5047889;28;20045;-85
2022/06/04 05:10:11;;;;;;;9.23;5.00;;;;;;;;;;5054244;28;20056;-85
2022/06/04 05:12:37;;;;;;;8.15;5.32;;;;;;;;;;5049129;28;20041;-85
2022/06/04 05:15:03;;;;;;;6.20;4.80;;;;;;;;;;5048416;28;20056;-85
2022/06/04 05:17:29;;;;;;;6.20;5.13;;;;;;;;;;5047602;28;20506;-84
2022/06/04 05:19:56;;;;;;;6.03;4.93;;;;;;;;;;5048268;28;20041;-85
2022/06/04 05:22:22;;;;;;;7.40;5.10;;;;;;;;;;5047265;28;20053;-85
2022/06/04 05:24:48;;;;;;;9.98;5.43;;;;;;;;;;5062975;28;20397;-85
2022/06/04 05:27:14;;;;;;;7.28;5.07;;;;;;;;;;5071069;28;20056;-85
2022/06/04 05:29:40;;;;;;;8.15;4.97;;;;;;;;;;5071498;28;20044;-85
2022/06/04 05:32:07;;;;;;;6.65;5.45;;;;;;;;;;5061067;28;20076;-84
2022/06/04 05:34:33;;;;;;;7.13;5.50;;;;;;;;;;5083393;28;20044;-84
2022/06/04 05:37:01;;;;;;;6.60;5.25;;;;;;;;;;5050818;28;20095;-84
2022/06/04 05:39:29;;;;;;;7.18;5.18;;;;;;;;;;5068702;28;20406;-84
2022/06/04 05:41:55;;;;;;;8.60;5.95;;;;;;;;;;5051830;28;20538;-84
2022/06/04 05:44:21;;;;;;;9.23;6.13;;;;;;;;;;5051113;28;20077;-85
2022/06/04 05:46:47;;;;;;;9.38;6.10;;;;;;;;;;5050624;28;20127;-84
2022/06/04 05:49:14;;;;;;;6.78;6.00;;;;;;;;;;5048351;28;20049;-84
2022/06/04 05:51:42;;;;;;;8.70;6.25;;;;;;;;;;5049772;28;20049;-85
2022/06/04 05:54:08;;;;;;;9.93;6.05;;;;;;;;;;5070862;28;20556;-85
2022/06/04 05:56:36;;;;;;;8.52;5.68;;;;;;;;;;5054270;28;20048;-84
2022/06/04 05:59:04;;;;;;;9.32;5.53;;;;;;;;;;5050388;28;20334;-84
2022/06/04 06:01:34;;;;;;;7.97;5.65;;;;;;;;;;5071292;28;20040;-85
2022/06/04 06:04:01;;;;;;;7.57;5.60;;;;;;;;;;5059137;28;20510;-85
2022/06/04 06:06:31;;;;;;;8.02;5.35;;;;;;;;;;5048911;28;20418;-85
2022/06/04 06:08:58;;;;;;;8.55;5.45;;;;;;;;;;5051380;28;20053;-86
2022/06/04 06:11:24;;;;;;;11.95;5.80;;;;;;;;;;5051599;28;20041;-85
2022/06/04 06:13:51;;;;;;;9.32;5.30;;;;;;;;;;5052540;28;20091;-85
2022/06/04 06:16:19;;;;;;;11.75;5.43;;;;;;;;;;5051950;28;20041;-85
2022/06/04 06:18:45;;;;;;;8.70;5.22;;;;;;;;;;5049451;28;20512;-85
2022/06/04 06:21:15;;;;;;;7.03;4.85;;;;;;;;;;5050962;28;20079;-85
2022/06/04 06:23:43;;;;;;;6.80;5.07;;;;;;;;;;5051289;28;20045;-84
2022/06/04 06:26:11;;;;;;;11.43;5.55;;;;;;;;;;5050269;28;20055;-87
2022/06/04 06:28:39;;;;;;;5.78;4.78;;;;;;;;;;5060322;28;20047;-85
2022/06/04 06:31:05;;;;;;;6.18;5.13;;;;;;;;;;5051161;28;20048;-85
2022/06/04 06:33:32;;;;;;;8.25;5.35;;;;;;;;;;5049818;28;20382;-85
2022/06/04 06:36:02;;;;;;;7.88;4.78;;;;;;;;;;5054481;28;20049;-85
2022/06/04 06:38:28;;;;;;;6.28;5.22;;;;;;;;;;5071447;28;20543;-84
2022/06/04 06:40:55;;;;;;;7.05;4.45;;;;;;;;;;5069625;28;20488;-84
2022/06/04 06:43:22;;;;;;;8.65;5.30;;;;;;;;;;5060065;28;20048;-84
2022/06/04 06:45:48;;;;;;;8.93;4.90;;;;;;;;;;5049735;28;20064;-84
2022/06/04 06:48:15;;;;;;;7.35;4.78;;;;;;;;;;5056085;28;20047;-84
2022/06/04 06:50:42;;;;;;;6.28;4.50;;;;;;;;;;5048368;28;20068;-84
2022/06/04 06:53:08;;;;;;;8.00;5.85;;;;;;;;;;5050430;28;20487;-84
2022/06/04 06:55:35;;;;;;;8.48;4.72;;;;;;;;;;5052175;28;20103;-84
2022/06/04 06:58:01;;;;;;;8.93;4.70;;;;;;;;;;5069474;28;20507;-84
2022/06/04 07:00:27;;;;;;;7.03;4.30;;;;;;;;;;5064904;28;20041;-84
2022/06/04 07:02:53;;;;;;;5.60;4.13;;;;;;;;;;5056211;28;20090;-84
2022/06/04 07:05:19;;;;;;;5.45;4.22;;;;;;;;;;5057422;28;20032;-85
2022/06/04 07:07:45;;;;;;;6.50;5.10;;;;;;;;;;5049266;28;20380;-84
2022/06/04 07:10:11;;;;;;;7.68;5.20;;;;;;;;;;5050109;28;20079;-84
2022/06/04 07:12:37;;;;;;;7.22;5.25;;;;;;;;;;5048964;28;20235;-84
2022/06/04 07:15:04;;;;;;;8.25;5.63;;;;;;;;;;5048986;28;20045;-84
2022/06/04 07:17:30;;;;;;;9.13;4.63;;;;;;;;;;5048941;28;20506;-84
2022/06/04 07:19:56;;;;;;;7.65;5.65;;;;;;;;;;5047444;28;20407;-83
2022/06/04 07:22:22;;;;;;;8.50;5.13;;;;;;;;;;5051135;28;20124;-94
2022/06/04 07:24:48;;;;;;;8.18;5.18;;;;;;;;;;5051326;28;20380;-85
2022/06/04 07:27:14;;;;;;;6.80;4.35;;;;;;;;;;5061794;28;20055;-86
2022/06/04 07:29:40;;;;;;;8.10;5.32;;;;;;;;;;5049131;28;20048;-88
2022/06/04 07:32:09;;;;;;;6.40;4.45;;;;;;;;;;5056165;28;20071;-87
2022/06/04 07:34:35;;;;;;;6.22;4.78;;;;;;;;;;5067162;28;20599;-87
2022/06/04 07:37:01;;;;;;;6.25;4.13;;;;;;;;;;5055825;28;20056;-87
2022/06/04 07:39:27;;;;;;;7.65;4.40;;;;;;;;;;5068952;28;20093;-87
2022/06/04 07:41:54;;;;;;;6.00;4.18;;;;;;;;;;5069857;28;20063;-88
2022/06/04 07:44:21;;;;;;;5.25;4.00;;;;;;;;;;5065617;28;20042;-87
2022/06/04 07:46:47;;;;;;;5.15;4.63;;;;;;;;;;5062648;28;20083;-87
2022/06/04 07:49:14;;;;;;;8.15;4.55;;;;;;;;;;5044317;28;21488;-96
2022/06/04 07:51:42;;;;;;;6.07;4.40;;;;;;;;;;5039412;28;20048;-85
2022/06/04 07:54:08;;;;;;;7.65;3.97;;;;;;;;;;5043605;28;20045;-88
2022/06/04 07:56:34;;;;;;;7.05;4.63;;;;;;;;;;5048120;28;20044;-88
2022/06/04 07:59:00;;;;;;;6.15;4.93;;;;;;;;;;5065208;28;20049;-88
2022/06/04 08:01:28;;;;;;;5.70;4.22;;;;;;;;;;5061586;28;20382;-88
2022/06/04 08:03:54;;;;;;;5.45;4.05;;;;;;;;;;5047668;28;20044;-89
2022/06/04 08:06:21;;;;;;;7.75;4.82;;;;;;;;;;5049821;28;20079;-90
2022/06/04 08:08:49;;;;;;;7.05;4.20;;;;;;;;;;5047315;28;20048;-84
2022/06/04 08:11:30;;;;;;;5.40;3.50;;;;;;;;;;5043166;28;20449;-85
2022/06/04 08:13:57;;;;;;;6.43;4.00;;;;;;;;;;5043728;28;20060;-84
2022/06/04 08:16:23;;;;;;;5.65;3.83;;;;;;;;;;5048209;28;20051;-84
2022/06/04 08:18:49;;;;;;;6.97;4.03;;;;;;;;;;5046246;28;20497;-88
2022/06/04 08:21:15;;;;;;;6.38;3.88;;;;;;;;;;5045058;28;20052;-84
2022/06/04 08:23:44;;;;;;;4.75;3.90;;;;;;;;;;5061434;28;20102;-84
2022/06/04 08:26:10;;;;;;;5.90;4.40;;;;;;;;;;5067895;28;20094;-84
2022/06/04 08:28:38;;;;;;;5.85;4.10;;;;;;;;;;5051855;28;20173;-84
2022/06/04 08:31:08;;;;;;;6.22;4.03;;;;;;;;;;5045635;28;20041;-84
2022/06/04 08:33:36;;;;;;;5.38;4.50;;;;;;;;;;5048409;28;20057;-85
2022/06/04 08:36:02;;;;;;;5.13;3.90;;;;;;;;;;5047476;28;20048;-85
2022/06/04 08:38:28;;;;;;;5.15;3.90;;;;;;;;;;5049582;28;20053;-85
2022/06/04 08:40:59;;;;;;;6.45;4.07;;;;;;;;;;5044168;28;20055;-85
2022/06/04 08:43:28;;;;;;;8.38;4.88;;;;;;;;;;5044006;28;20417;-84
2022/06/04 08:45:54;;;;;;;7.80;4.28;;;;;;;;;;5045272;28;20127;-85
2022/06/04 08:48:23;;;;;;;8.73;3.97;;;;;;;;;;5045933;28;20045;-83
2022/06/04 08:50:49;;;;;;;14.35;6.00;;;;;;;;;;5054405;28;20075;-83
2022/06/04 08:53:22;;;;;;;11.60;5.43;;;;;;;;;;5067762;28;20084;-85
2022/06/04 08:58:47;;;;;;;6.93;4.85;;;;;;;;;;5052555;28;20053;-83
2022/06/04 09:01:24;;;;;;;11.68;6.22;;;;;;;;;;5062328;28;20055;-84
2022/06/04 09:03:56;;;;;;;8.18;4.57;;;;;;;;;;5070142;28;20040;-86
2022/06/04 09:06:38;;;;;;;21.67;8.80;;;;;;;;;;5051092;28;20045;-83
2022/06/04 09:09:13;;;;;;;10.88;5.22;;;;;;;;;;5032861;28;20045;-84
2022/06/04 09:11:57;;;;;;;9.20;4.18;;;;;;;;;;5035206;28;20402;-84
2022/06/04 09:14:23;;;;;;;8.20;4.60;;;;;;;;;;5056541;28;20045;-84
2022/06/04 09:16:52;;;;;;;9.32;4.78;;;;;;;;;;5052681;28;20465;-84
2022/06/04 09:19:21;;;;;;;6.63;4.53;;;;;;;;;;5063297;28;20072;-84
2022/06/04 09:21:48;;;;;;;7.10;4.45;;;;;;;;;;5051310;28;20098;-84
2022/06/04 09:24:14;;;;;;;6.25;3.65;;;;;;;;;;5051464;28;20463;-84
2022/06/04 09:26:42;;;;;;;8.15;3.92;;;;;;;;;;5052262;28;20041;-84
2022/06/04 09:29:14;;;;;;;6.63;3.80;;;;;;;;;;5071010;28;20082;-84
2022/06/04 09:31:56;;;;;;;4.95;3.47;;;;;;;;;;5069911;28;20052;-84
2022/06/04 09:34:25;;;;;;;6.07;4.25;;;;;;;;;;5054920;28;20412;-82
2022/06/04 09:36:51;;;;;;;5.82;4.00;;;;;;;;;;5050746;28;20064;-82
2022/06/04 09:39:25;;;;;;;6.22;3.85;;;;;;;;;;5048299;28;20127;-83
2022/06/04 09:41:54;;;;;;;5.13;3.78;;;;;;;;;;5043399;28;20450;-83
2022/06/04 09:44:20;;;;;;;5.70;4.07;;;;;;;;;;5049879;28;20460;-83
2022/06/04 09:46:48;;;;;;;7.97;4.20;;;;;;;;;;5050253;28;20049;-83
2022/06/04 09:49:24;;;;;;;4.90;3.97;;;;;;;;;;5052032;28;20052;-83
2022/06/04 09:51:50;;;;;;;5.72;4.30;;;;;;;;;;5052070;28;20471;-83
2022/06/04 09:54:20;;;;;;;6.20;4.32;;;;;;;;;;5056476;28;20048;-87
2022/06/04 09:56:50;;;;;;;6.38;4.22;;;;;;;;;;5064534;28;20045;-83
2022/06/04 09:59:24;;;;;;;5.50;4.40;;;;;;;;;;5050447;28;20139;-83
2022/06/04 10:02:13;;;;;;;10.48;4.88;;;;;;;;;;5063970;28;20049;-83
2022/06/04 10:04:44;;;;;;;5.68;4.60;;;;;;;;;;5027025;28;20468;-82
2022/06/04 10:07:18;;;;;;;5.47;4.47;;;;;;;;;;5031960;28;20140;-83
2022/06/04 10:09:56;;;;;;;6.88;4.20;;;;;;;;;;5049691;28;20052;-83
2022/06/04 10:13:42;;;;;;;7.25;5.25;;;;;;;;;;5064811;28;20059;-83
2022/06/04 10:15:15;;;;;;;7.38;3.95;;;;;;;;;;5058131;28;20053;-87
2022/06/04 10:17:41;;;;;;;7.65;4.68;;;;;;;;;;5051897;28;20056;-83
2022/06/04 10:20:27;;;;;;;6.15;4.00;;;;;;;;;;5051858;28;20041;-84
2022/06/04 10:22:54;;;;;;;;;;;;;;;;;;5050523;28;20061;-84
2022/06/04 10:25:25;;;;;;;6.70;4.38;;;;;;;;;;5057797;28;20320;-84
2022/06/04 10:27:52;;;;;;;8.07;4.38;;;;;;;;;;5053519;28;20044;-83
2022/06/04 10:30:26;;;;;;;7.72;4.65;;;;;;;;;;5057956;28;20095;-84
2022/06/04 10:32:59;;;;;;;7.75;4.60;;;;;;;;;;5037368;28;20053;-84
2022/06/04 10:35:56;;;;;;;7.45;4.55;;;;;;;;;;5033810;28;20062;-83
2022/06/04 10:38:27;;;;;;;5.30;4.03;;;;;;;;;;4992353;28;20133;-83
2022/06/04 10:40:56;;;;;;;7.10;4.75;;;;;;;;;;5008779;28;20042;-83
2022/06/04 10:43:42;;;;;;;8.35;4.78;;;;;;;;;;4996860;28;20071;-93
2022/06/04 10:46:20;;;;;;;5.25;4.75;;;;;;;;;;5005208;28;20046;-89
2022/06/04 10:48:57;;;;;;;7.28;4.78;;;;;;;;;;4992707;28;20682;-90
2022/06/04 10:51:38;;;;;;;9.98;5.15;;;;;;;;;;5010461;28;20053;-84
2022/06/04 10:54:04;;;;;;;7.82;4.90;;;;;;;;;;5012326;28;20115;-85
2022/06/04 10:56:36;;;;;;;8.63;4.72;;;;;;;;;;4994495;28;20061;-85
2022/06/04 10:59:06;;;;;;;9.15;4.55;;;;;;;;;;5024877;28;20092;-86
2022/06/04 11:01:41;;;;;;;8.30;4.63;;;;;;;;;;4995936;28;20400;-87
2022/06/04 11:04:07;;;;;;;9.80;4.80;;;;;;;;;;4995545;28;20043;-87
2022/06/04 11:06:46;;;;;;;9.18;4.97;;;;;;;;;;5009330;28;20106;-87
2022/06/04 11:09:20;;;;;;;9.40;4.85;;;;;;;;;;4989431;28;20073;-85
2022/06/04 11:11:49;;;;;;;11.43;4.63;;;;;;;;;;4995354;28;20129;-91
2022/06/04 11:14:18;;;;;;;7.28;5.05;;;;;;;;;;5033835;28;20045;-91
2022/06/04 11:16:47;;;;;;;6.05;4.53;;;;;;;;;;5055348;28;20434;-84
2022/06/04 11:19:15;;;;;;;7.25;4.80;;;;;;;;;;5070340;28;20067;-86
2022/06/04 11:21:44;;;;;;;9.43;5.05;;;;;;;;;;5069502;28;20044;-85
2022/06/04 11:24:26;;;;;;;7.93;4.90;;;;;;;;;;5070542;28;20056;-85
2022/06/04 11:27:03;;;;;;;11.18;6.13;;;;;;;;;;5070322;28;20424;-93
2022/06/04 11:29:29;;;;;;;8.25;5.57;;;;;;;;;;5063576;28;20076;-84
2022/06/04 11:32:07;;;;;;;8.70;5.70;;;;;;;;;;5057080;28;20174;-84
2022/06/04 11:34:33;;;;;;;7.57;5.30;;;;;;;;;;5068543;28;20090;-84
2022/06/04 11:37:24;;;;;;;12.30;5.97;;;;;;;;;;5056521;28;20079;-84
2022/06/04 11:40:10;;;;;;;7.72;5.38;;;;;;;;;;5050181;28;20045;-84
2022/06/04 11:42:48;;;;;;;8.67;4.73;;;;;;;;;;5051761;28;20048;-84
2022/06/04 11:45:30;;;;;;;10.38;5.10;;;;;;;;;;5055331;28;20056;-85
2022/06/04 11:48:03;;;;;;;10.30;4.93;;;;;;;;;;5068756;28;20483;-85
2022/06/04 11:50:32;;;;;;;8.27;4.95;;;;;;;;;;5069398;28;20047;-86
2022/06/04 11:53:01;;;;;;;10.27;5.13;;;;;;;;;;5048372;28;20067;-85
2022/06/04 11:55:30;;;;;;;9.23;5.82;;;;;;;;;;5050049;28;20124;-86
2022/06/04 11:58:02;;;;;;;6.30;4.55;;;;;;;;;;5063445;28;20048;-88
2022/06/04 12:00:33;;;;;;;7.15;4.72;;;;;;;;;;5048921;28;20080;-86
2022/06/04 12:03:05;;;;;;;9.32;5.25;;;;;;;;;;5065923;28;20124;-85
2022/06/04 12:05:49;;;;;;;8.57;5.10;;;;;;;;;;5061999;28;20123;-91
2022/06/04 12:08:23;;;;;;;11.20;4.97;;;;;;;;;;5068058;28;20052;-89
2022/06/04 12:11:14;;;;;;;9.60;4.63;;;;;;;;;;5060466;28;20134;-91
2022/06/04 12:13:43;;;;;;;8.52;4.53;;;;;;;;;;5036542;28;20049;-86
2022/06/04 12:16:12;;;;;;;8.82;4.78;;;;;;;;;;5044171;28;20051;-86
2022/06/04 12:18:44;;;;;;;6.70;4.72;;;;;;;;;;5052942;28;20043;-86
2022/06/04 12:24:23;;;;;;;11.15;5.25;;;;;;;;;;5068240;28;20049;-86
2022/06/04 12:26:49;;;;;;;7.88;4.18;;;;;;;;;;5069693;28;20084;-86
2022/06/04 12:29:33;;;;;;;6.75;4.63;;;;;;;;;;5069617;28;20056;-86
2022/06/04 12:32:01;;;;;;;8.32;4.70;;;;;;;;;;5066876;28;20106;-86
2022/06/04 12:34:27;;;;;;;7.53;5.10;;;;;;;;;;5073494;28;20134;-86
2022/06/04 12:36:54;;;;;;;7.65;5.15;;;;;;;;;;5072080;28;20117;-86
2022/06/04 12:39:23;;;;;;;9.38;4.38;;;;;;;;;;5072667;28;20052;-86
2022/06/04 12:42:02;;;;;;;8.02;4.90;;;;;;;;;;5072266;28;20075;-86
2022/06/04 12:44:38;;;;;;;7.75;4.45;;;;;;;;;;5055251;28;20052;-86
2022/06/04 12:47:23;;;;;;;7.50;4.40;;;;;;;;;;5055861;28;20198;-86
2022/06/04 12:49:49;;;;;;;6.55;4.28;;;;;;;;;;5071592;28;20098;-86
2022/06/04 12:52:35;;;;;;;8.98;4.75;;;;;;;;;;5069912;28;20048;-86
2022/06/04 12:55:11;;;;;;;10.07;4.95;;;;;;;;;;5053126;28;20064;-86
2022/06/04 12:57:37;;;;;;;;;;;;;;;;;;5052779;28;20064;-86
2022/06/04 13:00:17;;;;;;;7.75;4.50;;;;;;;;;;5051893;28;19920;-86
2022/06/04 13:02:55;;;;;;;8.98;4.65;;;;;;;;;;5071124;28;20052;-86
2022/06/04 13:05:31;;;;;;;7.10;4.43;;;;;;;;;;5071956;28;20481;-86
2022/06/04 13:08:07;;;;;;;7.10;4.22;;;;;;;;;;5061911;28;20053;-86
2022/06/04 13:10:33;;;;;;;;;;;;;;;;;;5052317;28;20059;-86
2022/06/04 13:13:01;;;;;;;7.68;4.15;;;;;;;;;;5051568;28;19921;-86
2022/06/04 13:15:31;;;;;;;6.97;4.07;;;;;;;;;;5055744;28;20094;-86
2022/06/04 13:17:57;;;;;;;5.65;4.22;;;;;;;;;;5070979;28;20155;-86
2022/06/04 13:20:37;;;;;;;9.23;4.47;;;;;;;;;;5072870;28;20516;-86
2022/06/04 13:23:13;;;;;;;8.10;3.83;;;;;;;;;;5056873;28;20060;-86
2022/06/04 13:25:39;;;;;;;;;;;;;;;;;;5052379;28;20041;-86
2022/06/04 13:28:05;;;;;;;7.45;4.00;;;;;;;;;;5051179;28;20347;-86
2022/06/04 13:30:33;;;;;;;7.35;3.67;;;;;;;;;;5066159;28;20053;-86
2022/06/04 13:33:12;;;;;;;9.60;4.22;;;;;;;;;;5070320;28;20049;-86
2022/06/04 13:35:46;;;;;;;8.73;4.68;;;;;;;;;;5070370;28;20052;-86
2022/06/04 13:38:21;;;;;;;6.00;4.03;;;;;;;;;;5080246;28;20654;-84
2022/06/04 13:40:47;;;;;;;6.20;3.95;;;;;;;;;;5034128;28;20045;-91
2022/06/04 13:43:13;;;;;;;6.75;4.20;;;;;;;;;;5031280;28;20398;-85
2022/06/04 13:45:40;;;;;;;8.65;4.10;;;;;;;;;;5054475;28;20564;-85
2022/06/04 13:48:27;;;;;;;7.90;4.32;;;;;;;;;;5070345;28;20044;-85
2022/06/04 13:50:55;;;;;;;7.75;4.32;;;;;;;;;;5071958;28;20404;-85
2022/06/04 13:53:23;;;;;;;6.93;3.90;;;;;;;;;;5069486;28;20516;-85
2022/06/04 13:56:07;;;;;;;7.55;4.05;;;;;;;;;;5071997;28;20123;-85
2022/06/04 13:58:44;;;;;;;8.35;4.25;;;;;;;;;;5069613;28;20092;-85
2022/06/04 14:01:12;;;;;;;8.40;4.28;;;;;;;;;;5063770;28;20041;-85
2022/06/04 14:03:39;;;;;;;5.75;3.97;;;;;;;;;;5034048;28;20041;-85
2022/06/04 14:06:06;;;;;;;8.63;4.35;;;;;;;;;;5051069;28;20528;-85
2022/06/04 14:08:45;;;;;;;9.75;4.25;;;;;;;;;;5051936;28;20037;-85
2022/06/04 14:11:37;;;;;;;6.63;3.53;;;;;;;;;;5050223;28;20049;-85
2022/06/04 14:14:19;;;;;;;7.15;3.92;;;;;;;;;;5020498;28;20568;-85
2022/06/04 14:16:51;;;;;;;6.97;4.13;;;;;;;;;;5050231;28;20056;-84
2022/06/04 14:19:17;;;;;;;7.15;4.07;;;;;;;;;;5051852;28;20136;-85
2022/06/04 14:22:02;;;;;;;7.68;4.32;;;;;;;;;;5043089;28;20045;-85
2022/06/04 14:24:31;;;;;;;9.20;4.20;;;;;;;;;;5048412;28;20060;-85
2022/06/04 14:27:07;;;;;;;7.13;4.45;;;;;;;;;;5049877;28;20094;-84
2022/06/04 14:29:43;;;;;;;10.32;4.30;;;;;;;;;;5051578;28;20107;-85
2022/06/04 14:32:18;;;;;;;6.85;4.40;;;;;;;;;;5051133;28;20485;-85
2022/06/04 14:34:45;;;;;;;9.63;4.40;;;;;;;;;;5050439;28;20103;-85
2022/06/04 14:37:12;;;;;;;7.90;4.40;;;;;;;;;;5049962;28;20494;-85
2022/06/04 14:39:41;;;;;;;6.13;4.03;;;;;;;;;;5066763;28;20137;-85
2022/06/04 14:42:13;;;;;;;6.60;4.63;;;;;;;;;;5063009;28;20045;-85
2022/06/04 14:44:58;;;;;;;6.85;4.15;;;;;;;;;;5049681;28;20394;-85
2022/06/04 14:47:28;;;;;;;6.65;4.43;;;;;;;;;;5051364;28;20068;-85
2022/06/04 14:50:10;;;;;;;7.05;4.75;;;;;;;;;;5051073;28;20116;-84
2022/06/04 14:52:40;;;;;;;6.40;4.03;;;;;;;;;;5052340;28;20416;-84
2022/06/04 14:55:16;;;;;;;5.80;4.32;;;;;;;;;;5049302;28;20044;-85
2022/06/04 14:57:51;;;;;;;6.65;4.50;;;;;;;;;;5051382;28;20056;-85
2022/06/04 15:00:27;;;;;;;10.45;5.13;;;;;;;;;;5049551;28;20136;-85
2022/06/04 15:02:56;;;;;;;7.20;4.30;;;;;;;;;;5048974;28;20059;-84
2022/06/04 15:05:22;;;;;;;7.97;4.82;;;;;;;;;;5049473;28;20127;-84
2022/06/04 15:07:51;;;;;;;8.48;4.50;;;;;;;;;;5048516;28;20045;-84
2022/06/04 15:10:35;;;;;;;6.43;4.38;;;;;;;;;;5050854;28;20516;-84
2022/06/04 15:13:04;;;;;;;7.20;4.10;;;;;;;;;;5048993;28;20132;-85